Jacksonville, North Carolina
Current Conditions -  °F | °C
As of 1:56 PM on Saturday 25 Oct 2014 (Local Time) from KNCA Reporting Station
Clear Clear  
Wind Chill: 72°   Ceiling: Unl
Heat Index: 72°   Visibility: 10mi
Dew Point: 46°   Wind: 5mph
Humidity: 40%   Direction: NA
Pressure: 29.93"   Gusts: NA
Location:  34.75°N, 77.42°W
Report Text: KNCA 251756Z AUTO VRB04KT 10SM CLR 22/08 A2993 RMK AO2 SLP138 T02220078 10222 20072 58019
Loading
Personal Weather Stations






























Interactive Weather Map New forecast layout! Learn more

10-Day Weather Forecast

Advertisements
Track Severe Weather on mobile